sensor_id;sensor_type;location;lat;lon;timestamp;pressure;altitude;pressure_sealevel;temperature;humidity
77019;BME280;66044;53.142;17.962;2023-10-13T00:00:30;101041.26;;;6.08;73.46
77019;BME280;66044;53.142;17.962;2023-10-13T00:03:21;101039.64;;;6.06;73.46
77019;BME280;66044;53.142;17.962;2023-10-13T00:05:48;101038.55;;;6.02;73.24
77019;BME280;66044;53.142;17.962;2023-10-13T00:08:18;101039.79;;;5.98;73.22
77019;BME280;66044;53.142;17.962;2023-10-13T00:10:47;101041.56;;;5.95;73.19
77019;BME280;66044;53.142;17.962;2023-10-13T00:13:14;101042.73;;;5.92;73.34
77019;BME280;66044;53.142;17.962;2023-10-13T00:15:43;101047.73;;;5.89;73.21
77019;BME280;66044;53.142;17.962;2023-10-13T00:18:29;101046.19;;;5.86;73.34
77019;BME280;66044;53.142;17.962;2023-10-13T00:21:08;101045.73;;;5.83;73.25
77019;BME280;66044;53.142;17.962;2023-10-13T00:23:43;101047.36;;;5.80;73.09
77019;BME280;66044;53.142;17.962;2023-10-13T00:26:20;101048.96;;;5.76;73.03
77019;BME280;66044;53.142;17.962;2023-10-13T00:28:50;101049.41;;;5.73;73.22
77019;BME280;66044;53.142;17.962;2023-10-13T00:31:25;101054.81;;;5.69;73.23
77019;BME280;66044;53.142;17.962;2023-10-13T00:33:58;101060.87;;;5.64;73.15
77019;BME280;66044;53.142;17.962;2023-10-13T00:36:35;101059.68;;;5.61;73.31
77019;BME280;66044;53.142;17.962;2023-10-13T00:39:02;101056.30;;;5.58;73.34
77019;BME280;66044;53.142;17.962;2023-10-13T00:41:33;101049.62;;;5.55;73.25
77019;BME280;66044;53.142;17.962;2023-10-13T00:44:19;101051.14;;;5.52;73.23
77019;BME280;66044;53.142;17.962;2023-10-13T00:47:05;101053.11;;;5.48;73.38
77019;BME280;66044;53.142;17.962;2023-10-13T00:49:34;101052.44;;;5.45;73.36
77019;BME280;66044;53.142;17.962;2023-10-13T00:52:06;101049.77;;;5.41;73.24
77019;BME280;66044;53.142;17.962;2023-10-13T00:54:37;101052.94;;;5.37;73.25
77019;BME280;66044;53.142;17.962;2023-10-13T00:57:05;101057.56;;;5.33;73.33
77019;BME280;66044;53.142;17.962;2023-10-13T00:59:38;101055.30;;;5.30;73.26
77019;BME280;66044;53.142;17.962;2023-10-13T01:02:04;101059.69;;;5.28;73.33
77019;BME280;66044;53.142;17.962;2023-10-13T01:04:49;101063.88;;;5.25;73.42
77019;BME280;66044;53.142;17.962;2023-10-13T01:07:16;101064.80;;;5.22;73.41
77019;BME280;66044;53.142;17.962;2023-10-13T01:09:43;101070.45;;;5.20;73.48
77019;BME280;66044;53.142;17.962;2023-10-13T01:12:09;101069.56;;;5.19;73.47
77019;BME280;66044;53.142;17.962;2023-10-13T01:14:36;101067.65;;;5.19;73.47
77019;BME280;66044;53.142;17.962;2023-10-13T01:17:02;101065.29;;;5.20;73.49
77019;BME280;66044;53.142;17.962;2023-10-13T01:19:36;101063.15;;;5.21;73.63
77019;BME280;66044;53.142;17.962;2023-10-13T01:22:09;101059.46;;;5.23;73.63
77019;BME280;66044;53.142;17.962;2023-10-13T01:24:36;101056.16;;;5.25;73.65
77019;BME280;66044;53.142;17.962;2023-10-13T01:27:03;101057.59;;;5.25;73.58
77019;BME280;66044;53.142;17.962;2023-10-13T01:29:47;101051.90;;;5.24;73.56
77019;BME280;66044;53.142;17.962;2023-10-13T01:32:19;101047.86;;;5.22;73.58
77019;BME280;66044;53.142;17.962;2023-10-13T01:34:45;101046.39;;;5.20;73.49
77019;BME280;66044;53.142;17.962;2023-10-13T01:37:14;101046.48;;;5.18;73.65
77019;BME280;66044;53.142;17.962;2023-10-13T01:39:42;101045.91;;;5.15;73.59
77019;BME280;66044;53.142;17.962;2023-10-13T01:42:13;101044.33;;;5.12;73.52
77019;BME280;66044;53.142;17.962;2023-10-13T01:44:45;101046.28;;;5.09;73.54
77019;BME280;66044;53.142;17.962;2023-10-13T01:47:12;101044.42;;;5.06;73.60
77019;BME280;66044;53.142;17.962;2023-10-13T01:49:39;101047.23;;;5.03;73.47
77019;BME280;66044;53.142;17.962;2023-10-13T01:52:09;101049.27;;;5.01;73.55
77019;BME280;66044;53.142;17.962;2023-10-13T01:54:46;101045.71;;;4.98;73.49
77019;BME280;66044;53.142;17.962;2023-10-13T01:57:15;101039.73;;;4.96;73.35
77019;BME280;66044;53.142;17.962;2023-10-13T01:59:44;101039.86;;;4.93;73.43
77019;BME280;66044;53.142;17.962;2023-10-13T02:02:11;101036.41;;;4.90;73.15
77019;BME280;66044;53.142;17.962;2023-10-13T02:04:41;101037.58;;;4.87;73.13
77019;BME280;66044;53.142;17.962;2023-10-13T02:07:24;101034.02;;;4.83;73.29
77019;BME280;66044;53.142;17.962;2023-10-13T02:09:56;101032.10;;;4.79;73.24
77019;BME280;66044;53.142;17.962;2023-10-13T02:12:23;101037.42;;;4.76;73.28
77019;BME280;66044;53.142;17.962;2023-10-13T02:15:03;101031.30;;;4.72;73.36
77019;BME280;66044;53.142;17.962;2023-10-13T02:17:31;101028.11;;;4.69;73.34
77019;BME280;66044;53.142;17.962;2023-10-13T02:20:08;101032.91;;;4.67;73.27
77019;BME280;66044;53.142;17.962;2023-10-13T02:22:36;101030.92;;;4.65;73.24
77019;BME280;66044;53.142;17.962;2023-10-13T02:25:05;101031.41;;;4.64;73.35
77019;BME280;66044;53.142;17.962;2023-10-13T02:27:35;101031.20;;;4.62;73.29
77019;BME280;66044;53.142;17.962;2023-10-13T02:30:08;101030.89;;;4.60;73.39
77019;BME280;66044;53.142;17.962;2023-10-13T02:32:41;101028.58;;;4.58;73.37
77019;BME280;66044;53.142;17.962;2023-10-13T02:35:10;101027.25;;;4.56;73.46
77019;BME280;66044;53.142;17.962;2023-10-13T02:37:41;101033.00;;;4.56;73.47
77019;BME280;66044;53.142;17.962;2023-10-13T02:40:20;101034.60;;;4.56;73.48
77019;BME280;66044;53.142;17.962;2023-10-13T02:42:49;101037.36;;;4.55;73.62
77019;BME280;66044;53.142;17.962;2023-10-13T02:45:16;101038.76;;;4.54;73.58
77019;BME280;66044;53.142;17.962;2023-10-13T02:47:48;101038.39;;;4.53;73.56
77019;BME280;66044;53.142;17.962;2023-10-13T02:50:34;101039.07;;;4.53;73.72
77019;BME280;66044;53.142;17.962;2023-10-13T02:53:01;101036.64;;;4.52;74.09
77019;BME280;66044;53.142;17.962;2023-10-13T02:55:27;101043.02;;;4.52;74.33
77019;BME280;66044;53.142;17.962;2023-10-13T02:57:54;101038.27;;;4.52;74.47
77019;BME280;66044;53.142;17.962;2023-10-13T03:00:23;101038.81;;;4.52;74.47
77019;BME280;66044;53.142;17.962;2023-10-13T03:02:50;101036.68;;;4.52;74.68
77019;BME280;66044;53.142;17.962;2023-10-13T03:05:24;101041.36;;;4.53;74.92
77019;BME280;66044;53.142;17.962;2023-10-13T03:07:55;101045.40;;;4.55;74.80
77019;BME280;66044;53.142;17.962;2023-10-13T03:10:23;101044.91;;;4.56;74.85
77019;BME280;66044;53.142;17.962;2023-10-13T03:12:55;101046.84;;;4.55;75.07
77019;BME280;66044;53.142;17.962;2023-10-13T03:15:22;101048.43;;;4.55;75.31
77019;BME280;66044;53.142;17.962;2023-10-13T03:17:56;101050.29;;;4.56;75.24
77019;BME280;66044;53.142;17.962;2023-10-13T03:20:25;101051.89;;;4.56;75.46
77019;BME280;66044;53.142;17.962;2023-10-13T03:22:58;101051.94;;;4.56;75.56
77019;BME280;66044;53.142;17.962;2023-10-13T03:25:26;101051.83;;;4.58;75.51
77019;BME280;66044;53.142;17.962;2023-10-13T03:27:56;101052.77;;;4.59;75.53
77019;BME280;66044;53.142;17.962;2023-10-13T03:30:23;101046.10;;;4.60;75.77
77019;BME280;66044;53.142;17.962;2023-10-13T03:32:56;101043.33;;;4.61;75.67
77019;BME280;66044;53.142;17.962;2023-10-13T03:35:23;101042.52;;;4.64;75.62
77019;BME280;66044;53.142;17.962;2023-10-13T03:37:57;101040.80;;;4.67;75.55
77019;BME280;66044;53.142;17.962;2023-10-13T03:40:24;101038.23;;;4.68;75.39
77019;BME280;66044;53.142;17.962;2023-10-13T03:42:58;101043.81;;;4.69;75.59
77019;BME280;66044;53.142;17.962;2023-10-13T03:45:38;101042.11;;;4.70;75.55
77019;BME280;66044;53.142;17.962;2023-10-13T03:48:07;101042.59;;;4.70;75.56
77019;BME280;66044;53.142;17.962;2023-10-13T03:50:39;101035.03;;;4.68;75.52
77019;BME280;66044;53.142;17.962;2023-10-13T03:53:24;101037.21;;;4.68;75.63
77019;BME280;66044;53.142;17.962;2023-10-13T03:55:52;101029.86;;;4.68;75.63
77019;BME280;66044;53.142;17.962;2023-10-13T03:58:38;101039.45;;;4.70;75.60
77019;BME280;66044;53.142;17.962;2023-10-13T04:01:12;101039.18;;;4.70;75.75
77019;BME280;66044;53.142;17.962;2023-10-13T04:03:43;101042.91;;;4.71;75.63
77019;BME280;66044;53.142;17.962;2023-10-13T04:06:23;101048.70;;;4.72;75.87
77019;BME280;66044;53.142;17.962;2023-10-13T04:09:17;101044.17;;;4.73;75.78
77019;BME280;66044;53.142;17.962;2023-10-13T04:11:57;101037.73;;;4.73;75.90
77019;BME280;66044;53.142;17.962;2023-10-13T04:14:38;101038.35;;;4.74;75.96
77019;BME280;66044;53.142;17.962;2023-10-13T04:17:08;101032.99;;;4.73;75.95
77019;BME280;66044;53.142;17.962;2023-10-13T04:19:40;101029.02;;;4.72;76.19
77019;BME280;66044;53.142;17.962;2023-10-13T04:22:27;101031.35;;;4.71;76.16
77019;BME280;66044;53.142;17.962;2023-10-13T04:25:23;101030.41;;;4.71;76.16
77019;BME280;66044;53.142;17.962;2023-10-13T04:28:06;101020.08;;;4.70;76.27
77019;BME280;66044;53.142;17.962;2023-10-13T04:33:22;101019.59;;;4.71;76.27
77019;BME280;66044;53.142;17.962;2023-10-13T04:36:02;101015.84;;;4.73;76.39
77019;BME280;66044;53.142;17.962;2023-10-13T04:38:49;101017.68;;;4.78;76.40
77019;BME280;66044;53.142;17.962;2023-10-13T04:41:33;101019.52;;;4.81;76.50
77019;BME280;66044;53.142;17.962;2023-10-13T04:44:24;101025.98;;;4.82;76.73
77019;BME280;66044;53.142;17.962;2023-10-13T04:47:14;101025.02;;;4.84;76.88
77019;BME280;66044;53.142;17.962;2023-10-13T04:49:48;101023.46;;;4.87;76.94
77019;BME280;66044;53.142;17.962;2023-10-13T04:52:14;101023.38;;;4.90;77.10
77019;BME280;66044;53.142;17.962;2023-10-13T04:54:59;101013.61;;;4.93;77.39
77019;BME280;66044;53.142;17.962;2023-10-13T04:57:36;101012.24;;;4.97;77.43
77019;BME280;66044;53.142;17.962;2023-10-13T05:00:13;101014.30;;;5.01;77.68
77019;BME280;66044;53.142;17.962;2023-10-13T05:02:46;101014.51;;;5.06;77.62
77019;BME280;66044;53.142;17.962;2023-10-13T05:05:28;101016.70;;;5.11;77.71
77019;BME280;66044;53.142;17.962;2023-10-13T05:08:13;101012.04;;;5.14;77.58
77019;BME280;66044;53.142;17.962;2023-10-13T05:11:05;101009.41;;;5.17;77.65
77019;BME280;66044;53.142;17.962;2023-10-13T05:13:50;101008.63;;;5.20;77.60
77019;BME280;66044;53.142;17.962;2023-10-13T05:16:36;101016.50;;;5.21;77.71
77019;BME280;66044;53.142;17.962;2023-10-13T05:19:21;101021.77;;;5.23;77.73
77019;BME280;66044;53.142;17.962;2023-10-13T05:22:06;101023.98;;;5.25;77.85
77019;BME280;66044;53.142;17.962;2023-10-13T05:24:51;101024.79;;;5.28;77.84
77019;BME280;66044;53.142;17.962;2023-10-13T05:27:35;101029.77;;;5.31;77.84
77019;BME280;66044;53.142;17.962;2023-10-13T05:30:20;101032.89;;;5.34;77.78
77019;BME280;66044;53.142;17.962;2023-10-13T05:33:05;101036.00;;;5.38;77.80
77019;BME280;66044;53.142;17.962;2023-10-13T05:35:50;101037.98;;;5.41;77.67
77019;BME280;66044;53.142;17.962;2023-10-13T05:38:35;101034.16;;;5.45;77.72
77019;BME280;66044;53.142;17.962;2023-10-13T05:41:20;101033.47;;;5.50;77.50
77019;BME280;66044;53.142;17.962;2023-10-13T05:44:05;101025.29;;;5.53;77.35
77019;BME280;66044;53.142;17.962;2023-10-13T05:46:51;101022.55;;;5.55;77.05
77019;BME280;66044;53.142;17.962;2023-10-13T05:49:36;101015.55;;;5.57;77.07
77019;BME280;66044;53.142;17.962;2023-10-13T05:52:28;101017.27;;;5.61;77.08
77019;BME280;66044;53.142;17.962;2023-10-13T05:55:13;101008.35;;;5.66;76.98
77019;BME280;66044;53.142;17.962;2023-10-13T05:58:15;101008.29;;;5.72;76.93
77019;BME280;66044;53.142;17.962;2023-10-13T06:01:01;101009.89;;;5.81;76.72
77019;BME280;66044;53.142;17.962;2023-10-13T06:03:46;101011.98;;;5.91;76.69
77019;BME280;66044;53.142;17.962;2023-10-13T06:06:31;101017.14;;;6.04;76.42
77019;BME280;66044;53.142;17.962;2023-10-13T06:09:16;101017.65;;;6.14;76.62
77019;BME280;66044;53.142;17.962;2023-10-13T06:12:01;101019.08;;;6.23;76.19
77019;BME280;66044;53.142;17.962;2023-10-13T06:14:46;101024.53;;;6.30;76.16
77019;BME280;66044;53.142;17.962;2023-10-13T06:17:31;101026.16;;;6.36;75.91
77019;BME280;66044;53.142;17.962;2023-10-13T06:20:16;101031.02;;;6.39;75.71
77019;BME280;66044;53.142;17.962;2023-10-13T06:23:01;101037.55;;;6.42;75.88
77019;BME280;66044;53.142;17.962;2023-10-13T06:25:53;101040.11;;;6.49;75.86
77019;BME280;66044;53.142;17.962;2023-10-13T06:28:39;101042.31;;;6.55;75.86
77019;BME280;66044;53.142;17.962;2023-10-13T06:31:11;101045.17;;;6.61;75.84
77019;BME280;66044;53.142;17.962;2023-10-13T06:33:52;101046.23;;;6.69;75.71
77019;BME280;66044;53.142;17.962;2023-10-13T06:36:18;101048.30;;;6.74;75.66
77019;BME280;66044;53.142;17.962;2023-10-13T06:38:45;101045.33;;;6.78;75.42
77019;BME280;66044;53.142;17.962;2023-10-13T06:41:19;101043.77;;;6.83;75.63
77019;BME280;66044;53.142;17.962;2023-10-13T06:43:56;101040.08;;;6.90;75.64
77019;BME280;66044;53.142;17.962;2023-10-13T06:46:27;101040.06;;;6.98;75.71
77019;BME280;66044;53.142;17.962;2023-10-13T06:48:54;101033.84;;;7.05;75.73
77019;BME280;66044;53.142;17.962;2023-10-13T06:51:21;101032.85;;;7.14;75.37
77019;BME280;66044;53.142;17.962;2023-10-13T06:53:49;101035.33;;;7.28;75.71
77019;BME280;66044;53.142;17.962;2023-10-13T06:56:15;101033.71;;;7.55;75.12
77019;BME280;66044;53.142;17.962;2023-10-13T06:58:44;101035.10;;;7.83;75.16
77019;BME280;66044;53.142;17.962;2023-10-13T07:01:13;101031.89;;;7.93;75.02
77019;BME280;66044;53.142;17.962;2023-10-13T07:03:44;101027.09;;;7.98;74.85
77019;BME280;66044;53.142;17.962;2023-10-13T07:06:15;101022.78;;;8.03;74.79
77019;BME280;66044;53.142;17.962;2023-10-13T07:08:47;101025.09;;;8.04;74.59
77019;BME280;66044;53.142;17.962;2023-10-13T07:11:25;101027.46;;;8.08;74.70
77019;BME280;66044;53.142;17.962;2023-10-13T07:14:04;101020.13;;;8.13;75.07
77019;BME280;66044;53.142;17.962;2023-10-13T07:16:43;101012.66;;;8.18;74.60
77019;BME280;66044;53.142;17.962;2023-10-13T07:19:13;101019.20;;;8.22;74.97
77019;BME280;66044;53.142;17.962;2023-10-13T07:21:44;101021.33;;;8.27;74.79
77019;BME280;66044;53.142;17.962;2023-10-13T07:24:13;101015.58;;;8.35;74.96
77019;BME280;66044;53.142;17.962;2023-10-13T07:26:40;101011.75;;;8.43;75.18
77019;BME280;66044;53.142;17.962;2023-10-13T07:29:09;101012.09;;;8.51;75.06
77019;BME280;66044;53.142;17.962;2023-10-13T07:31:36;101011.48;;;8.59;74.84
77019;BME280;66044;53.142;17.962;2023-10-13T07:34:04;101011.80;;;8.66;74.95
77019;BME280;66044;53.142;17.962;2023-10-13T07:36:39;101009.29;;;8.72;74.91
77019;BME280;66044;53.142;17.962;2023-10-13T07:39:06;101006.84;;;8.78;74.88
77019;BME280;66044;53.142;17.962;2023-10-13T07:41:48;101001.47;;;8.84;74.92
77019;BME280;66044;53.142;17.962;2023-10-13T07:44:24;101000.00;;;8.86;74.78
77019;BME280;66044;53.142;17.962;2023-10-13T07:46:58;101000.09;;;8.91;75.01
77019;BME280;66044;53.142;17.962;2023-10-13T07:49:32;100995.04;;;8.96;74.99
77019;BME280;66044;53.142;17.962;2023-10-13T07:52:00;100992.03;;;9.02;74.87
77019;BME280;66044;53.142;17.962;2023-10-13T07:54:44;100990.09;;;9.06;74.93
77019;BME280;66044;53.142;17.962;2023-10-13T07:57:15;100984.41;;;9.08;74.85
77019;BME280;66044;53.142;17.962;2023-10-13T07:59:43;100973.55;;;9.13;75.16
77019;BME280;66044;53.142;17.962;2023-10-13T08:02:18;100969.70;;;9.21;75.10
77019;BME280;66044;53.142;17.962;2023-10-13T08:05:09;100960.92;;;9.31;75.26
77019;BME280;66044;53.142;17.962;2023-10-13T08:07:40;100952.23;;;9.40;75.56
77019;BME280;66044;53.142;17.962;2023-10-13T08:10:07;100950.41;;;9.48;75.81
77019;BME280;66044;53.142;17.962;2023-10-13T08:12:36;100941.38;;;9.54;76.32
77019;BME280;66044;53.142;17.962;2023-10-13T08:15:04;100942.46;;;9.61;76.54
77019;BME280;66044;53.142;17.962;2023-10-13T08:17:53;100940.25;;;9.73;76.85
77019;BME280;66044;53.142;17.962;2023-10-13T08:20:20;100937.96;;;9.85;76.86
77019;BME280;66044;53.142;17.962;2023-10-13T08:22:48;100936.49;;;9.98;77.09
77019;BME280;66044;53.142;17.962;2023-10-13T08:25:15;100934.83;;;10.10;76.95
77019;BME280;66044;53.142;17.962;2023-10-13T08:27:47;100936.63;;;10.21;77.26
77019;BME280;66044;53.142;17.962;2023-10-13T08:30:31;100942.79;;;10.32;76.97
77019;BME280;66044;53.142;17.962;2023-10-13T08:33:08;100943.79;;;10.42;77.47
77019;BME280;66044;53.142;17.962;2023-10-13T08:35:44;100941.73;;;10.48;77.67
77019;BME280;66044;53.142;17.962;2023-10-13T08:38:43;100934.61;;;10.57;77.66
77019;BME280;66044;53.142;17.962;2023-10-13T08:41:17;100930.64;;;10.68;77.53
77019;BME280;66044;53.142;17.962;2023-10-13T08:43:46;100925.87;;;10.79;76.94
77019;BME280;66044;53.142;17.962;2023-10-13T08:46:20;100922.59;;;10.92;77.11
77019;BME280;66044;53.142;17.962;2023-10-13T08:48:57;100924.29;;;11.04;77.17
77019;BME280;66044;53.142;17.962;2023-10-13T08:51:42;100924.38;;;11.14;76.98
77019;BME280;66044;53.142;17.962;2023-10-13T08:54:17;100924.84;;;11.25;77.21
77019;BME280;66044;53.142;17.962;2023-10-13T08:57:05;100927.67;;;11.35;77.14
77019;BME280;66044;53.142;17.962;2023-10-13T08:59:46;100930.38;;;11.41;77.36
77019;BME280;66044;53.142;17.962;2023-10-13T09:02:21;100937.27;;;11.46;77.18
77019;BME280;66044;53.142;17.962;2023-10-13T09:05:09;100930.23;;;11.51;77.15
77019;BME280;66044;53.142;17.962;2023-10-13T09:07:56;100931.09;;;11.55;77.27
77019;BME280;66044;53.142;17.962;2023-10-13T09:10:34;100918.02;;;11.65;77.47
77019;BME280;66044;53.142;17.962;2023-10-13T09:13:11;100924.17;;;11.75;77.41
77019;BME280;66044;53.142;17.962;2023-10-13T09:15:45;100927.20;;;11.82;77.40
77019;BME280;66044;53.142;17.962;2023-10-13T09:18:27;100931.48;;;11.91;77.49
77019;BME280;66044;53.142;17.962;2023-10-13T09:21:15;100927.98;;;11.98;77.40
77019;BME280;66044;53.142;17.962;2023-10-13T09:24:00;100922.06;;;12.07;77.62
77019;BME280;66044;53.142;17.962;2023-10-13T09:26:46;100916.84;;;12.15;77.57
77019;BME280;66044;53.142;17.962;2023-10-13T09:29:19;100909.96;;;12.21;77.74
77019;BME280;66044;53.142;17.962;2023-10-13T09:31:47;100902.14;;;12.28;77.82
77019;BME280;66044;53.142;17.962;2023-10-13T09:34:21;100898.16;;;12.39;77.57
77019;BME280;66044;53.142;17.962;2023-10-13T09:36:50;100889.10;;;12.51;77.72
77019;BME280;66044;53.142;17.962;2023-10-13T09:39:24;100884.84;;;12.62;77.49
77019;BME280;66044;53.142;17.962;2023-10-13T09:42:02;100884.39;;;12.71;77.52
77019;BME280;66044;53.142;17.962;2023-10-13T09:44:30;100885.52;;;12.77;77.46
77019;BME280;66044;53.142;17.962;2023-10-13T09:47:01;100880.61;;;12.85;77.38
77019;BME280;66044;53.142;17.962;2023-10-13T09:49:39;100871.09;;;12.93;77.45
77019;BME280;66044;53.142;17.962;2023-10-13T09:52:16;100868.83;;;12.99;77.37
77019;BME280;66044;53.142;17.962;2023-10-13T09:57:33;100864.05;;;13.09;77.30
77019;BME280;66044;53.142;17.962;2023-10-13T10:00:08;100853.29;;;13.14;77.15
77019;BME280;66044;53.142;17.962;2023-10-13T10:02:54;100846.45;;;13.25;77.14
77019;BME280;66044;53.142;17.962;2023-10-13T10:05:25;100843.13;;;13.32;77.09
77019;BME280;66044;53.142;17.962;2023-10-13T10:07:56;100839.33;;;13.41;77.03
77019;BME280;66044;53.142;17.962;2023-10-13T10:10:42;100835.92;;;13.51;76.89
77019;BME280;66044;53.142;17.962;2023-10-13T10:13:23;100835.93;;;13.57;76.65
77019;BME280;66044;53.142;17.962;2023-10-13T10:15:59;100828.83;;;13.64;76.37
77019;BME280;66044;53.142;17.962;2023-10-13T10:18:28;100821.20;;;13.70;76.63
77019;BME280;66044;53.142;17.962;2023-10-13T10:21:04;100813.06;;;13.79;76.46
77019;BME280;66044;53.142;17.962;2023-10-13T10:23:33;100811.42;;;13.88;76.54
77019;BME280;66044;53.142;17.962;2023-10-13T10:26:15;100808.10;;;13.96;76.26
77019;BME280;66044;53.142;17.962;2023-10-13T10:28:46;100807.27;;;14.05;76.21
77019;BME280;66044;53.142;17.962;2023-10-13T10:31:13;100803.10;;;14.10;76.17
77019;BME280;66044;53.142;17.962;2023-10-13T10:33:46;100798.95;;;14.17;76.08
77019;BME280;66044;53.142;17.962;2023-10-13T10:36:30;100793.50;;;14.24;76.11
77019;BME280;66044;53.142;17.962;2023-10-13T10:38:58;100789.00;;;14.32;75.85
77019;BME280;66044;53.142;17.962;2023-10-13T10:41:31;100781.66;;;14.43;75.58
77019;BME280;66044;53.142;17.962;2023-10-13T10:44:12;100776.14;;;14.57;75.68
77019;BME280;66044;53.142;17.962;2023-10-13T10:47:12;100768.25;;;14.76;75.50
77019;BME280;66044;53.142;17.962;2023-10-13T10:49:46;100764.09;;;14.94;75.06
77019;BME280;66044;53.142;17.962;2023-10-13T10:52:16;100755.90;;;15.07;75.14
77019;BME280;66044;53.142;17.962;2023-10-13T10:54:58;100751.32;;;15.21;74.88
77019;BME280;66044;53.142;17.962;2023-10-13T10:57:25;100737.73;;;15.30;74.57
77019;BME280;66044;53.142;17.962;2023-10-13T10:59:55;100739.13;;;15.38;74.18
77019;BME280;66044;53.142;17.962;2023-10-13T11:02:40;100737.64;;;15.55;74.15
77019;BME280;66044;53.142;17.962;2023-10-13T11:05:07;100737.18;;;15.75;73.90
77019;BME280;66044;53.142;17.962;2023-10-13T11:07:36;100730.59;;;15.96;73.56
77019;BME280;66044;53.142;17.962;2023-10-13T11:10:09;100736.17;;;16.18;73.25
77019;BME280;66044;53.142;17.962;2023-10-13T11:12:57;100731.29;;;16.46;72.67
77019;BME280;66044;53.142;17.962;2023-10-13T11:15:44;100727.07;;;16.72;72.28
77019;BME280;66044;53.142;17.962;2023-10-13T11:18:11;100719.80;;;16.90;71.72
77019;BME280;66044;53.142;17.962;2023-10-13T11:20:48;100716.13;;;17.05;71.14
77019;BME280;66044;53.142;17.962;2023-10-13T11:23:20;100708.96;;;17.21;70.73
77019;BME280;66044;53.142;17.962;2023-10-13T11:25:59;100708.55;;;17.24;70.43
77019;BME280;66044;53.142;17.962;2023-10-13T11:28:26;100706.05;;;17.24;70.29
77019;BME280;66044;53.142;17.962;2023-10-13T11:30:56;100708.88;;;17.26;70.09
77019;BME280;66044;53.142;17.962;2023-10-13T11:33:25;100705.00;;;17.26;70.01
77019;BME280;66044;53.142;17.962;2023-10-13T11:35:56;100706.27;;;17.27;69.99
77019;BME280;66044;53.142;17.962;2023-10-13T11:38:24;100695.01;;;17.27;69.95
77019;BME280;66044;53.142;17.962;2023-10-13T11:43:52;100685.79;;;17.29;69.84
77019;BME280;66044;53.142;17.962;2023-10-13T11:46:21;100682.91;;;17.28;69.87
77019;BME280;66044;53.142;17.962;2023-10-13T11:49:08;100686.85;;;17.26;69.99
77019;BME280;66044;53.142;17.962;2023-10-13T11:51:58;100688.54;;;17.25;69.92
77019;BME280;66044;53.142;17.962;2023-10-13T11:54:45;100678.27;;;17.23;69.99
77019;BME280;66044;53.142;17.962;2023-10-13T11:57:13;100678.84;;;17.24;70.01
77019;BME280;66044;53.142;17.962;2023-10-13T11:59:43;100669.24;;;17.27;69.96
77019;BME280;66044;53.142;17.962;2023-10-13T12:02:11;100664.84;;;17.27;70.04
77019;BME280;66044;53.142;17.962;2023-10-13T12:04:53;100658.65;;;17.30;70.03
77019;BME280;66044;53.142;17.962;2023-10-13T12:07:29;100656.37;;;17.34;70.17
77019;BME280;66044;53.142;17.962;2023-10-13T12:10:11;100649.50;;;17.39;70.15
77019;BME280;66044;53.142;17.962;2023-10-13T12:13:00;100653.16;;;17.39;70.32
77019;BME280;66044;53.142;17.962;2023-10-13T12:15:33;100641.19;;;17.36;70.69
77019;BME280;66044;53.142;17.962;2023-10-13T12:18:15;100638.76;;;17.34;70.90
77019;BME280;66044;53.142;17.962;2023-10-13T12:20:42;100637.27;;;17.33;71.16
77019;BME280;66044;53.142;17.962;2023-10-13T12:23:13;100637.94;;;17.31;71.14
77019;BME280;66044;53.142;17.962;2023-10-13T12:25:44;100632.41;;;17.28;71.40
77019;BME280;66044;53.142;17.962;2023-10-13T12:28:24;100625.28;;;17.22;71.53
77019;BME280;66044;53.142;17.962;2023-10-13T12:30:54;100619.27;;;17.19;71.85
77019;BME280;66044;53.142;17.962;2023-10-13T12:33:21;100621.02;;;17.15;72.09
77019;BME280;66044;53.142;17.962;2023-10-13T12:38:57;100618.91;;;17.09;72.64
77019;BME280;66044;53.142;17.962;2023-10-13T12:41:35;100616.86;;;17.04;72.76
77019;BME280;66044;53.142;17.962;2023-10-13T12:44:20;100610.66;;;16.99;72.91
77019;BME280;66044;53.142;17.962;2023-10-13T12:47:06;100607.40;;;16.97;73.23
77019;BME280;66044;53.142;17.962;2023-10-13T12:49:51;100602.12;;;16.96;73.40
77019;BME280;66044;53.142;17.962;2023-10-13T12:52:34;100593.52;;;16.98;73.48
77019;BME280;66044;53.142;17.962;2023-10-13T12:55:02;100582.55;;;17.02;73.64
77019;BME280;66044;53.142;17.962;2023-10-13T12:57:33;100579.63;;;17.03;73.75
77019;BME280;66044;53.142;17.962;2023-10-13T13:00:00;100578.95;;;17.04;73.91
77019;BME280;66044;53.142;17.962;2023-10-13T13:02:28;100573.67;;;17.04;73.98
77019;BME280;66044;53.142;17.962;2023-10-13T13:04:56;100565.05;;;17.03;74.28
77019;BME280;66044;53.142;17.962;2023-10-13T13:07:41;100557.67;;;17.02;74.35
77019;BME280;66044;53.142;17.962;2023-10-13T13:10:18;100549.16;;;17.03;74.65
77019;BME280;66044;53.142;17.962;2023-10-13T13:12:45;100545.73;;;17.03;74.75
77019;BME280;66044;53.142;17.962;2023-10-13T13:15:12;100541.95;;;17.04;74.74
77019;BME280;66044;53.142;17.962;2023-10-13T13:17:38;100534.07;;;17.07;74.90
77019;BME280;66044;53.142;17.962;2023-10-13T13:20:06;100530.23;;;17.11;75.02
77019;BME280;66044;53.142;17.962;2023-10-13T13:22:59;100521.59;;;17.16;75.07
77019;BME280;66044;53.142;17.962;2023-10-13T13:25:30;100516.50;;;17.18;75.13
77019;BME280;66044;53.142;17.962;2023-10-13T13:27:58;100512.88;;;17.20;75.13
77019;BME280;66044;53.142;17.962;2023-10-13T13:30:31;100505.05;;;17.23;75.28
77019;BME280;66044;53.142;17.962;2023-10-13T13:32:59;100498.49;;;17.26;75.18
77019;BME280;66044;53.142;17.962;2023-10-13T13:35:30;100496.06;;;17.31;75.30
77019;BME280;66044;53.142;17.962;2023-10-13T13:38:02;100493.58;;;17.40;75.26